map of ROR home
ROR - Airport
Location
City:  Babelthuap Island, Palau
Name:Babelthuap/Koror Airport
ICAO:PTRO
IATA:ROR
FAA LID:ROR

Details
Type:Airport (Aerodrome, Airfield)
Use:Public/Civil, International (customs by prior arrangement)
Latitude:7°22'02"N (7.367306)
Longitude:134°32'39"E (134.544250)
Datum:WGS 1984
Elevation:176 ft (54 m)
Variation:0.06°E (WMM2015 magnetic declination)
-0.10° annual change
Runways:1
Longest:7200 × 150 ft (2195 × 45.5 m), paved

Time
Time Zone:UTC+9
Local Time:

Weather
METAR:PTRO 190550Z 24005KT 15SM BKN016TCU BKN120 BKN300 30/24 A2977 RMK TCU ALQDS
TAF:PTRO 190533Z 1906/2006 23007KT P6SM VCSH SCT016 BKN120

Related Locations
Nearby:
Farthest:SITW: 12447 mi / 20032 km
São Raimundo das Mangabeiras [Fazenda Santa Luzia], MA, BR

Find:

   beyond  
but within

Other Information
Maps:
NOTAMs:
Links:
Sources:

  
  • flag of Palau
  

Airport Diagram

Airport diagram for ROR

Airport diagram PDF

Sectional Chart

Flight Planning
at skyvector.com

Satellite Image

Google Maps Satellite view

 

Copyright © 2004-2018 Karl L. Swartz. All rights reserved.
The Great Circle Mapper name and logo are trademarks of the Great Circle Mapper.
All other trademarks mentioned herein belong to their respective owners.
Please see credits for attibutions and further copyright information.

  Follow gcmap on Facebook Follow gcmap on Twitter Follow gcmap on Google+ GCmap on LinkedIn

hCard Microformat

Geo Microformat